Elkhart Lake, Wisconsin
Current Conditions -  °F | °C
As of 3:53 AM on Saturday 25 Oct 2014 (Local Time) from KSBM Reporting Station
Haze Haze  
Wind Chill: 56°   Ceiling: 800
Heat Index: 56°   Visibility: 6mi
Dew Point: 53°   Wind: 15mph
Humidity: 90%   Direction: 270°W
Pressure: 29.82"   Gusts: 22mph
Location:  43.83°N, 88.02°W
Report Text: KSBM 250853Z AUTO 27013G19KT 6SM BR OVC008 13/12 A2982 RMK AO2 SLP098 T01330117 58002
Loading
Personal Weather Stations






























Interactive Weather Map New forecast layout! Learn more

10-Day Weather Forecast

Advertisements
Track Severe Weather on mobile